Time;durP1;ratioP1;P1;durP2;ratioP2;P2;SDS_P1;SDS_P2;PMS_P1;PMS_P2;Temp;Humidity;BMP_temperature;BMP_pressure;BME280_temperature;BME280_humidity;BME280_pressure;Samples;Min_cycle;Max_cycle;Signal;HPM_P1;HPM_P2
2021/10/11 00:00:21;;;;;;;;;;;21.10;56.00;;;;;;5089098;28;19989;-56
2021/10/11 00:02:48;;;;;;;;;;;21.10;56.00;;;;;;5073717;28;19924;-55
2021/10/11 00:05:16;;;;;;;;;;;21.10;56.00;;;;;;5073938;28;19924;-52
2021/10/11 00:07:43;;;;;;;;;;;21.10;56.30;;;;;;5075100;28;19947;-54
2021/10/11 00:10:16;;;;;;;;;;;21.10;56.00;;;;;;5073872;28;20388;-55
2021/10/11 00:12:43;;;;;;;;;;;21.10;56.00;;;;;;5073177;28;20011;-55
2021/10/11 00:15:10;;;;;;;;;;;21.20;56.10;;;;;;5072516;28;19959;-52
2021/10/11 00:17:37;;;;;;;;;;;21.10;56.00;;;;;;5073135;28;20011;-56
2021/10/11 00:20:05;;;;;;;;;;;21.10;56.00;;;;;;5072886;28;20442;-55
2021/10/11 00:22:32;;;;;;;;;;;21.10;56.00;;;;;;5073349;28;20326;-53
2021/10/11 00:24:59;;;;;;;;;;;21.10;56.00;;;;;;5074544;28;20003;-58
2021/10/11 00:27:25;;;;;;;;;;;21.10;56.00;;;;;;5071967;28;19925;-56
2021/10/11 00:29:52;;;;;;;;;;;21.10;56.00;;;;;;5073815;28;19974;-56
2021/10/11 00:32:19;;;;;;;;;;;21.10;56.00;;;;;;5074604;28;20031;-56
2021/10/11 00:34:46;;;;;;;;;;;21.10;56.00;;;;;;5054964;28;20367;-55
2021/10/11 00:37:13;;;;;;;;;;;21.10;56.00;;;;;;5072919;28;19928;-54
2021/10/11 00:39:40;;;;;;;;;;;21.10;56.00;;;;;;5072668;28;20036;-55
2021/10/11 00:42:07;;;;;;;;;;;21.10;56.00;;;;;;5062131;28;19925;-55
2021/10/11 00:44:34;;;;;;;;;;;21.10;56.00;;;;;;5067288;28;19982;-54
2021/10/11 00:47:01;;;;;;;;;;;21.10;56.00;;;;;;5072720;28;19924;-54
2021/10/11 00:49:29;;;;;;;;;;;21.10;56.00;;;;;;5073656;28;19940;-56
2021/10/11 00:51:56;;;;;;;;;;;21.10;56.00;;;;;;5069108;28;19978;-53
2021/10/11 00:54:24;;;;;;;;;;;21.10;56.00;;;;;;5062063;28;19977;-57
2021/10/11 00:56:51;;;;;;;;;;;21.10;56.00;;;;;;5073551;28;19967;-56
2021/10/11 00:59:18;;;;;;;;;;;21.10;56.00;;;;;;5054970;28;19932;-52
2021/10/11 01:01:45;;;;;;;;;;;21.10;56.00;;;;;;5072800;28;19924;-55
2021/10/11 01:04:12;;;;;;;;;;;21.10;56.00;;;;;;5073893;28;19930;-54
2021/10/11 01:06:40;;;;;;;;;;;21.10;56.00;;;;;;5058621;28;19925;-57
2021/10/11 01:09:08;;;;;;;;;;;21.10;56.00;;;;;;5070341;28;19925;-54
2021/10/11 01:11:36;;;;;;;;;;;21.10;56.00;;;;;;5063700;28;20410;-51
2021/10/11 01:14:04;;;;;;;;;;;21.10;56.00;;;;;;5066300;28;19924;-53
2021/10/11 01:16:31;;;;;;;;;;;21.10;56.00;;;;;;5066269;28;19925;-53
2021/10/11 01:18:58;;;;;;;;;;;21.10;56.00;;;;;;5060492;28;19931;-55
2021/10/11 01:21:25;;;;;;;;;;;21.10;56.00;;;;;;5072233;28;19929;-54
2021/10/11 01:23:53;;;;;;;;;;;21.10;56.00;;;;;;5072611;28;19959;-56
2021/10/11 01:26:21;;;;;;;;;;;21.10;56.00;;;;;;5072252;28;19928;-58
2021/10/11 01:28:48;;;;;;;;;;;21.10;56.00;;;;;;5072616;28;19989;-56
2021/10/11 01:31:15;;;;;;;;;;;21.10;56.00;;;;;;5088456;28;19946;-56
2021/10/11 01:33:42;;;;;;;;;;;21.10;56.00;;;;;;5073506;28;20292;-56
2021/10/11 01:36:09;;;;;;;;;;;21.10;56.00;;;;;;5072187;28;19955;-58
2021/10/11 01:38:36;;;;;;;;;;;21.10;56.00;;;;;;5063346;28;20380;-58
2021/10/11 01:41:03;;;;;;;;;;;21.10;56.00;;;;;;5063415;28;19970;-55
2021/10/11 01:43:30;;;;;;;;;;;21.10;56.00;;;;;;5073307;28;19977;-55
2021/10/11 01:45:57;;;;;;;;;;;21.10;56.00;;;;;;5073457;28;19975;-54
2021/10/11 01:48:24;;;;;;;;;;;21.10;56.00;;;;;;5071538;28;19986;-55
2021/10/11 01:50:50;;;;;;;;;;;21.10;56.00;;;;;;5072945;28;19924;-55
2021/10/11 01:53:17;;;;;;;;;;;21.10;55.90;;;;;;5054384;28;19951;-55
2021/10/11 01:55:44;;;;;;;;;;;21.10;56.00;;;;;;5054039;28;19970;-59
2021/10/11 01:58:11;;;;;;;;;;;21.10;55.90;;;;;;5071876;28;19970;-55
2021/10/11 02:00:38;;;;;;;;;;;21.10;55.90;;;;;;5105210;28;20395;-57
2021/10/11 02:03:07;;;;;;;;;;;21.10;55.90;;;;;;5071781;28;19924;-56
2021/10/11 02:05:34;;;;;;;;;;;21.10;55.90;;;;;;5071642;28;20431;-57
2021/10/11 02:08:02;;;;;;;;;;;21.10;55.90;;;;;;5070810;28;19925;-56
2021/10/11 02:10:29;;;;;;;;;;;21.10;56.00;;;;;;5070456;28;19931;-55
2021/10/11 02:12:56;;;;;;;;;;;21.10;55.90;;;;;;5104006;28;20031;-58
2021/10/11 02:15:23;;;;;;;;;;;21.10;55.90;;;;;;5069761;28;19933;-56
2021/10/11 02:17:50;;;;;;;;;;;21.10;55.90;;;;;;5055080;28;20391;-53
2021/10/11 02:20:18;;;;;;;;;;;21.10;55.90;;;;;;5071270;28;20015;-58
2021/10/11 02:22:45;;;;;;;;;;;21.10;55.90;;;;;;5071215;28;20339;-55
2021/10/11 02:25:12;;;;;;;;;;;21.10;55.90;;;;;;5072542;28;19924;-56
2021/10/11 02:27:39;;;;;;;;;;;21.10;55.90;;;;;;5070175;28;19977;-54
2021/10/11 02:30:07;;;;;;;;;;;21.10;55.90;;;;;;5071622;28;20392;-55
2021/10/11 02:32:34;;;;;;;;;;;21.10;56.00;;;;;;5071332;28;20369;-53
2021/10/11 02:35:01;;;;;;;;;;;21.10;55.90;;;;;;5070195;28;19928;-58
2021/10/11 02:37:28;;;;;;;;;;;21.10;55.90;;;;;;5070404;28;20344;-55
2021/10/11 02:39:55;;;;;;;;;;;21.10;55.90;;;;;;5068101;28;19971;-56
2021/10/11 02:42:23;;;;;;;;;;;21.10;56.00;;;;;;5056498;28;20311;-57
2021/10/11 02:44:52;;;;;;;;;;;21.10;55.90;;;;;;5070490;28;20003;-55
2021/10/11 02:47:19;;;;;;;;;;;21.10;55.90;;;;;;5057664;28;19994;-57
2021/10/11 02:49:46;;;;;;;;;;;21.10;55.90;;;;;;5089121;28;19997;-59
2021/10/11 02:52:13;;;;;;;;;;;21.10;55.90;;;;;;5070349;28;19931;-55
2021/10/11 02:54:40;;;;;;;;;;;21.10;55.90;;;;;;5071070;28;19972;-55
2021/10/11 02:57:06;;;;;;;;;;;21.10;55.90;;;;;;5071145;28;19971;-54
2021/10/11 02:59:33;;;;;;;;;;;21.10;55.90;;;;;;5071111;28;19978;-57
2021/10/11 03:02:01;;;;;;;;;;;21.10;55.90;;;;;;5072471;28;19994;-57
2021/10/11 03:04:28;;;;;;;;;;;21.10;55.90;;;;;;5074710;28;19924;-56
2021/10/11 03:06:55;;;;;;;;;;;21.10;55.90;;;;;;5073793;28;19970;-57
2021/10/11 03:09:21;;;;;;;;;;;21.10;55.90;;;;;;5073307;28;19925;-58
2021/10/11 03:11:49;;;;;;;;;;;21.10;55.90;;;;;;5075008;28;19924;-58
2021/10/11 03:14:16;;;;;;;;;;;21.10;55.90;;;;;;5076146;28;19924;-58
2021/10/11 03:16:43;;;;;;;;;;;21.10;55.90;;;;;;5074563;28;19924;-58
2021/10/11 03:19:10;;;;;;;;;;;21.10;55.90;;;;;;5074543;28;20017;-57
2021/10/11 03:21:37;;;;;;;;;;;21.10;55.90;;;;;;5094720;27;19968;-55
2021/10/11 03:24:04;;;;;;;;;;;21.10;56.00;;;;;;5058831;28;19929;-56
2021/10/11 03:26:31;;;;;;;;;;;21.10;55.90;;;;;;5067440;28;19924;-55
2021/10/11 03:28:58;;;;;;;;;;;21.10;55.90;;;;;;5074385;28;19924;-56
2021/10/11 03:31:25;;;;;;;;;;;21.10;55.90;;;;;;5080809;28;19924;-53
2021/10/11 03:33:52;;;;;;;;;;;21.10;56.00;;;;;;5085541;28;20379;-53
2021/10/11 03:36:19;;;;;;;;;;;21.10;55.90;;;;;;5089581;28;20438;-59
2021/10/11 03:38:45;;;;;;;;;;;21.10;56.00;;;;;;5090760;28;20288;-55
2021/10/11 03:41:12;;;;;;;;;;;21.10;55.90;;;;;;5073346;28;19971;-57
2021/10/11 03:43:39;;;;;;;;;;;21.10;56.00;;;;;;5059034;28;19964;-56
2021/10/11 03:46:06;;;;;;;;;;;21.10;56.00;;;;;;5074076;28;19925;-56
2021/10/11 03:48:33;;;;;;;;;;;21.10;56.00;;;;;;5088292;28;19963;-58
2021/10/11 03:51:00;;;;;;;;;;;21.10;56.00;;;;;;5079996;28;19928;-56
2021/10/11 03:53:27;;;;;;;;;;;21.00;55.90;;;;;;5085208;28;19967;-57
2021/10/11 03:55:54;;;;;;;;;;;21.00;55.90;;;;;;5082200;28;19932;-59
2021/10/11 03:58:21;;;;;;;;;;;21.00;55.90;;;;;;5103103;27;19928;-55
2021/10/11 04:00:48;;;;;;;;;;;21.00;55.90;;;;;;5058507;28;19995;-58
2021/10/11 04:03:15;;;;;;;;;;;21.10;56.00;;;;;;5057911;28;19960;-56
2021/10/11 04:05:42;;;;;;;;;;;21.00;55.90;;;;;;5073826;28;19924;-58
2021/10/11 04:08:14;;;;;;;;;;;21.00;55.90;;;;;;5057076;28;20010;-55
2021/10/11 04:10:54;;;;;;;;;;;21.10;55.90;;;;;;5056007;28;19955;-57
2021/10/11 04:13:21;;;;;;;;;;;21.10;56.50;;;;;;5071754;28;19925;-57
2021/10/11 04:15:48;;;;;;;;;;;21.00;55.90;;;;;;5090202;28;19967;-57
2021/10/11 04:18:15;;;;;;;;;;;21.10;56.00;;;;;;5062340;28;19975;-57
2021/10/11 04:20:43;;;;;;;;;;;21.00;55.90;;;;;;5057929;28;19974;-58
2021/10/11 04:23:10;;;;;;;;;;;21.00;55.90;;;;;;5068353;28;20280;-59
2021/10/11 04:25:37;;;;;;;;;;;21.00;55.90;;;;;;5073108;28;19986;-54
2021/10/11 04:28:04;;;;;;;;;;;21.00;55.90;;;;;;5070816;28;19982;-54
2021/10/11 04:30:32;;;;;;;;;;;21.00;55.90;;;;;;5073355;28;19933;-55
2021/10/11 04:32:59;;;;;;;;;;;21.00;55.90;;;;;;5072959;28;19924;-55
2021/10/11 04:35:27;;;;;;;;;;;21.00;55.90;;;;;;5074409;28;20017;-58
2021/10/11 04:37:54;;;;;;;;;;;21.00;55.90;;;;;;5073709;28;19924;-55
2021/10/11 04:40:21;;;;;;;;;;;21.00;55.90;;;;;;5057773;28;19979;-55
2021/10/11 04:42:48;;;;;;;;;;;21.00;55.90;;;;;;5059433;28;19924;-56
2021/10/11 04:45:15;;;;;;;;;;;21.00;55.90;;;;;;5070373;28;20376;-55
2021/10/11 04:47:42;;;;;;;;;;;21.00;55.90;;;;;;5062061;28;20012;-55
2021/10/11 04:50:09;;;;;;;;;;;21.00;55.90;;;;;;5067433;28;20032;-57
2021/10/11 04:52:36;;;;;;;;;;;21.00;55.90;;;;;;5070541;28;19924;-56
2021/10/11 04:55:03;;;;;;;;;;;21.00;55.90;;;;;;5074047;28;19928;-56
2021/10/11 04:57:30;;;;;;;;;;;21.00;55.90;;;;;;5072217;28;19924;-57
2021/10/11 04:59:57;;;;;;;;;;;21.00;55.90;;;;;;5072654;28;20343;-56
2021/10/11 05:02:24;;;;;;;;;;;21.00;55.90;;;;;;5072972;28;19994;-57
2021/10/11 05:04:51;;;;;;;;;;;21.00;55.90;;;;;;5055204;28;19929;-59
2021/10/11 05:07:18;;;;;;;;;;;21.00;55.90;;;;;;5072759;28;20296;-57
2021/10/11 05:09:49;;;;;;;;;;;21.00;55.90;;;;;;5057279;28;19924;-56
2021/10/11 05:12:16;;;;;;;;;;;21.00;55.90;;;;;;5058472;28;19929;-57
2021/10/11 05:14:43;;;;;;;;;;;21.00;55.90;;;;;;5066762;28;20445;-58
2021/10/11 05:17:10;;;;;;;;;;;21.00;55.90;;;;;;5073461;28;20281;-57
2021/10/11 05:19:37;;;;;;;;;;;21.00;55.90;;;;;;5072155;28;20327;-57
2021/10/11 05:22:04;;;;;;;;;;;21.00;55.90;;;;;;5078471;28;19924;-55
2021/10/11 05:24:31;;;;;;;;;;;21.00;55.90;;;;;;5086164;28;19924;-57
2021/10/11 05:26:58;;;;;;;;;;;21.00;55.90;;;;;;5072516;28;19932;-57
2021/10/11 05:29:25;;;;;;;;;;;21.00;55.90;;;;;;5056767;28;19964;-56
2021/10/11 05:31:52;;;;;;;;;;;21.10;55.90;;;;;;5054557;28;19925;-58
2021/10/11 05:34:19;;;;;;;;;;;21.00;55.80;;;;;;5071291;28;19929;-57
2021/10/11 05:36:46;;;;;;;;;;;21.00;55.80;;;;;;5088386;28;19928;-55
2021/10/11 05:39:13;;;;;;;;;;;21.00;55.80;;;;;;5073675;28;19970;-55
2021/10/11 05:41:40;;;;;;;;;;;21.10;55.90;;;;;;5082890;28;19924;-58
2021/10/11 05:44:07;;;;;;;;;;;21.10;55.90;;;;;;5087314;28;19967;-56
2021/10/11 05:46:34;;;;;;;;;;;21.10;55.80;;;;;;5079604;28;19924;-55
2021/10/11 05:49:11;;;;;;;;;;;21.10;55.80;;;;;;5067528;28;19931;-58
2021/10/11 05:51:38;;;;;;;;;;;21.10;55.80;;;;;;5058099;28;19933;-57
2021/10/11 05:54:05;;;;;;;;;;;21.10;55.80;;;;;;5056918;28;19933;-58
2021/10/11 05:56:32;;;;;;;;;;;21.10;55.80;;;;;;5072153;28;19943;-57
2021/10/11 05:59:02;;;;;;;;;;;21.10;55.70;;;;;;5072002;28;19932;-55
2021/10/11 06:01:29;;;;;;;;;;;21.10;55.70;;;;;;5071224;28;19973;-58
2021/10/11 06:03:56;;;;;;;;;;;21.10;55.70;;;;;;5070994;28;20324;-57
2021/10/11 06:06:23;;;;;;;;;;;21.10;55.70;;;;;;5072110;28;19987;-56
2021/10/11 06:08:50;;;;;;;;;;;21.10;55.70;;;;;;5070625;28;19964;-55
2021/10/11 06:11:17;;;;;;;;;;;21.10;55.70;;;;;;5071306;28;20414;-57
2021/10/11 06:13:45;;;;;;;;;;;21.10;55.70;;;;;;5074374;28;19924;-57
2021/10/11 06:16:12;;;;;;;;;;;21.10;55.70;;;;;;5072765;28;19924;-56
2021/10/11 06:18:39;;;;;;;;;;;21.10;55.60;;;;;;5060041;28;19925;-55
2021/10/11 06:21:06;;;;;;;;;;;21.10;55.60;;;;;;5056632;28;20381;-53
2021/10/11 06:23:33;;;;;;;;;;;21.10;55.60;;;;;;5071891;28;19982;-57
2021/10/11 06:26:00;;;;;;;;;;;21.10;55.50;;;;;;5053871;28;19924;-57
2021/10/11 06:28:27;;;;;;;;;;;21.10;55.50;;;;;;5073394;28;19925;-58
2021/10/11 06:30:55;;;;;;;;;;;21.20;55.60;;;;;;5072491;28;19947;-57
2021/10/11 06:33:22;;;;;;;;;;;21.20;55.60;;;;;;5057467;28;19925;-58
2021/10/11 06:35:49;;;;;;;;;;;21.20;55.60;;;;;;5068010;28;19928;-54
2021/10/11 06:38:16;;;;;;;;;;;21.20;55.60;;;;;;5074243;28;19977;-57
2021/10/11 06:40:46;;;;;;;;;;;21.10;55.50;;;;;;5074040;28;19925;-58
2021/10/11 06:43:13;;;;;;;;;;;21.10;55.50;;;;;;5075248;28;19924;-58
2021/10/11 06:45:40;;;;;;;;;;;21.10;55.50;;;;;;5075663;28;19947;-56
2021/10/11 06:48:07;;;;;;;;;;;21.10;55.50;;;;;;5076291;28;20369;-57
2021/10/11 06:50:34;;;;;;;;;;;21.20;55.60;;;;;;5074964;28;19972;-57
2021/10/11 06:53:02;;;;;;;;;;;21.20;55.60;;;;;;5075118;28;19974;-56
2021/10/11 06:55:29;;;;;;;;;;;21.10;55.50;;;;;;5074181;28;19960;-56
2021/10/11 06:58:00;;;;;;;;;;;21.20;55.60;;;;;;5074120;28;19924;-55
2021/10/11 07:00:27;;;;;;;;;;;21.20;55.60;;;;;;5075961;28;19974;-55
2021/10/11 07:02:54;;;;;;;;;;;21.20;55.60;;;;;;5074937;28;19928;-56
2021/10/11 07:05:21;;;;;;;;;;;21.10;55.40;;;;;;5073861;28;19924;-56
2021/10/11 07:07:48;;;;;;;;;;;21.10;55.40;;;;;;5074927;28;20098;-58
2021/10/11 07:10:15;;;;;;;;;;;21.20;55.50;;;;;;5074628;28;20330;-58
2021/10/11 07:12:42;;;;;;;;;;;21.20;55.50;;;;;;5072232;28;19925;-57
2021/10/11 07:15:24;;;;;;;;;;;21.20;55.50;;;;;;5067968;28;19924;-59
2021/10/11 07:17:51;;;;;;;;;;;21.20;55.50;;;;;;5082835;28;20429;-57
2021/10/11 07:20:18;;;;;;;;;;;21.20;55.50;;;;;;5059110;28;19968;-58
2021/10/11 07:22:45;;;;;;;;;;;21.20;55.50;;;;;;5073747;28;20424;-56
2021/10/11 07:25:12;;;;;;;;;;;21.20;56.00;;;;;;5075506;28;20355;-58
2021/10/11 07:27:39;;;;;;;;;;;21.20;55.40;;;;;;5074897;28;19924;-54
2021/10/11 07:30:06;;;;;;;;;;;21.20;55.40;;;;;;5075257;28;19971;-55
2021/10/11 07:32:33;;;;;;;;;;;21.20;55.40;;;;;;5072997;28;19925;-54
2021/10/11 07:35:01;;;;;;;;;;;21.20;55.40;;;;;;5074050;28;20388;-57
2021/10/11 07:37:28;;;;;;;;;;;21.20;55.40;;;;;;5074597;28;19994;-58
2021/10/11 07:39:55;;;;;;;;;;;21.20;55.40;;;;;;5075224;28;19979;-57
2021/10/11 07:42:22;;;;;;;;;;;21.20;55.40;;;;;;5070337;28;19994;-59
2021/10/11 07:44:49;;;;;;;;;;;21.20;55.30;;;;;;5062156;28;19947;-53
2021/10/11 07:47:16;;;;;;;;;;;21.30;55.40;;;;;;5075338;28;20306;-54
2021/10/11 07:49:43;;;;;;;;;;;21.20;55.30;;;;;;5075700;28;19964;-57
2021/10/11 07:52:10;;;;;;;;;;;21.20;55.30;;;;;;5105025;28;19967;-56
2021/10/11 07:54:37;;;;;;;;;;;21.30;55.40;;;;;;5058394;28;19924;-57
2021/10/11 07:57:04;;;;;;;;;;;21.30;55.30;;;;;;5073284;28;19924;-56
2021/10/11 07:59:31;;;;;;;;;;;21.30;55.30;;;;;;5072588;28;19964;-55
2021/10/11 08:01:58;;;;;;;;;;;21.30;55.30;;;;;;5074894;28;20380;-54
2021/10/11 08:04:25;;;;;;;;;;;21.30;55.30;;;;;;5066102;28;19947;-56
2021/10/11 08:06:52;;;;;;;;;;;21.30;55.30;;;;;;5065210;28;19977;-59
2021/10/11 08:09:19;;;;;;;;;;;21.30;55.20;;;;;;5073420;28;20011;-58
2021/10/11 08:11:46;;;;;;;;;;;21.30;55.20;;;;;;5073345;28;19924;-57
2021/10/11 08:14:14;;;;;;;;;;;21.30;55.20;;;;;;5057594;28;19924;-56
2021/10/11 08:16:41;;;;;;;;;;;21.30;55.20;;;;;;5055987;28;20102;-54
2021/10/11 08:19:08;;;;;;;;;;;21.30;55.20;;;;;;5091442;28;19971;-57
2021/10/11 08:21:36;;;;;;;;;;;21.30;55.20;;;;;;5071418;28;20330;-58
2021/10/11 08:24:04;;;;;;;;;;;21.30;55.20;;;;;;5073021;28;20372;-58
2021/10/11 08:26:34;;;;;;;;;;;21.30;55.20;;;;;;5073349;28;19925;-55
2021/10/11 08:29:02;;;;;;;;;;;21.30;55.20;;;;;;5073224;28;20012;-58
2021/10/11 08:31:30;;;;;;;;;;;21.30;55.20;;;;;;5075449;28;19975;-58
2021/10/11 08:33:57;;;;;;;;;;;21.30;55.20;;;;;;5068080;28;19924;-54
2021/10/11 08:36:24;;;;;;;;;;;21.30;55.20;;;;;;5061893;28;20012;-56
2021/10/11 08:38:51;;;;;;;;;;;21.30;55.20;;;;;;5073482;28;19931;-54
2021/10/11 08:41:18;;;;;;;;;;;21.30;55.20;;;;;;5073898;28;19925;-57
2021/10/11 08:43:45;;;;;;;;;;;21.30;55.20;;;;;;5072999;28;19931;-58
2021/10/11 08:46:12;;;;;;;;;;;21.30;55.20;;;;;;5073789;28;19925;-58
2021/10/11 08:48:39;;;;;;;;;;;21.30;55.10;;;;;;5071963;28;20011;-58
2021/10/11 08:51:07;;;;;;;;;;;21.30;55.10;;;;;;5072473;28;19974;-56
2021/10/11 08:53:34;;;;;;;;;;;21.30;55.10;;;;;;5086740;28;20019;-57
2021/10/11 08:56:02;;;;;;;;;;;21.30;55.10;;;;;;5076593;28;19970;-58
2021/10/11 08:58:40;;;;;;;;;;;21.40;55.10;;;;;;5074069;28;20303;-57
2021/10/11 09:01:07;;;;;;;;;;;21.40;55.10;;;;;;5073248;28;19928;-56
2021/10/11 09:03:34;;;;;;;;;;;21.40;55.10;;;;;;5068155;28;19974;-58
2021/10/11 09:06:03;;;;;;;;;;;21.40;55.10;;;;;;5060864;28;19928;-56
2021/10/11 09:08:31;;;;;;;;;;;21.30;55.00;;;;;;5072300;28;20548;-57
2021/10/11 09:10:59;;;;;;;;;;;21.40;55.10;;;;;;5072276;28;20412;-56
2021/10/11 09:13:38;;;;;;;;;;;21.40;55.10;;;;;;5056526;28;20277;-57
2021/10/11 09:16:07;;;;;;;;;;;21.30;55.10;;;;;;5072310;28;20319;-54
2021/10/11 09:18:37;;;;;;;;;;;21.40;55.10;;;;;;5055564;28;20442;-54
2021/10/11 09:21:04;;;;;;;;;;;21.40;55.10;;;;;;5055972;28;19924;-54
2021/10/11 09:23:31;;;;;;;;;;;21.40;55.00;;;;;;5072314;28;19925;-57
2021/10/11 09:25:59;;;;;;;;;;;21.40;55.00;;;;;;5071638;28;19925;-57
2021/10/11 09:28:27;;;;;;;;;;;21.40;55.00;;;;;;5072096;28;19925;-57
2021/10/11 09:31:10;;;;;;;;;;;21.40;55.00;;;;;;5082608;28;19928;-58
2021/10/11 09:33:37;;;;;;;;;;;21.40;55.00;;;;;;5080080;28;20384;-57
2021/10/11 09:36:04;;;;;;;;;;;21.40;54.90;;;;;;5071830;28;19924;-58
2021/10/11 09:38:31;;;;;;;;;;;21.40;54.90;;;;;;5077544;28;19928;-56
2021/10/11 09:40:59;;;;;;;;;;;21.40;54.90;;;;;;5087643;28;20426;-58
2021/10/11 09:43:27;;;;;;;;;;;21.40;54.80;;;;;;5087214;28;19931;-57
2021/10/11 09:45:55;;;;;;;;;;;21.40;54.80;;;;;;5073666;28;19982;-57
2021/10/11 09:48:22;;;;;;;;;;;21.40;54.80;;;;;;5090198;28;19928;-56
2021/10/11 09:50:49;;;;;;;;;;;21.40;54.80;;;;;;5069879;28;20019;-58
2021/10/11 09:53:17;;;;;;;;;;;21.40;54.70;;;;;;5070703;28;19924;-57
2021/10/11 09:55:44;;;;;;;;;;;21.40;54.70;;;;;;5071756;28;20015;-57
2021/10/11 09:58:12;;;;;;;;;;;21.40;54.70;;;;;;5071700;28;19925;-57
2021/10/11 10:00:41;;;;;;;;;;;21.40;54.70;;;;;;5071994;28;19932;-57
2021/10/11 10:03:15;;;;;;;;;;;21.40;54.70;;;;;;5072072;28;19947;-57
2021/10/11 10:05:47;;;;;;;;;;;21.40;54.60;;;;;;5078966;28;19924;-57
2021/10/11 10:08:17;;;;;;;;;;;21.40;54.60;;;;;;5075287;28;20351;-55
2021/10/11 10:10:48;;;;;;;;;;;21.40;54.60;;;;;;5071512;28;19932;-57
2021/10/11 10:13:17;;;;;;;;;;;21.40;54.60;;;;;;5075524;28;20384;-56
2021/10/11 10:15:45;;;;;;;;;;;21.40;54.60;;;;;;5074488;28;19933;-55
2021/10/11 10:18:13;;;;;;;;;;;21.40;54.50;;;;;;5076040;28;19924;-56
2021/10/11 10:20:51;;;;;;;;;;;21.40;54.50;;;;;;5074419;28;19971;-57
2021/10/11 10:23:27;;;;;;;;;;;21.50;54.50;;;;;;5076794;28;20011;-57
2021/10/11 10:25:56;;;;;;;;;;;21.40;54.50;;;;;;5076431;28;19975;-58
2021/10/11 10:28:26;;;;;;;;;;;21.40;54.40;;;;;;5077006;28;19974;-57
2021/10/11 10:30:57;;;;;;;;;;;21.40;54.40;;;;;;5076077;28;19924;-55
2021/10/11 10:33:38;;;;;;;;;;;21.40;54.40;;;;;;5074543;28;19999;-55
2021/10/11 10:36:22;;;;;;;;;;;21.50;54.40;;;;;;5074454;28;19974;-55
2021/10/11 10:39:15;;;;;;;;;;;21.50;54.40;;;;;;5077737;28;20015;-56
2021/10/11 10:41:44;;;;;;;;;;;21.50;54.30;;;;;;5074220;28;20039;-57
2021/10/11 10:44:16;;;;;;;;;;;21.50;54.30;;;;;;5075323;28;19924;-58
2021/10/11 10:46:52;;;;;;;;;;;21.50;54.30;;;;;;5073926;28;19999;-56
2021/10/11 10:49:26;;;;;;;;;;;21.50;54.30;;;;;;5084518;28;20003;-55
2021/10/11 10:51:53;;;;;;;;;;;21.50;54.20;;;;;;5083761;28;20065;-57
2021/10/11 10:54:31;;;;;;;;;;;21.50;54.20;;;;;;5074778;28;19942;-57
2021/10/11 10:57:04;;;;;;;;;;;21.50;54.20;;;;;;5075123;28;20344;-56
2021/10/11 10:59:30;;;;;;;;;;;21.50;54.20;;;;;;5070507;28;20376;-56
2021/10/11 11:02:11;;;;;;;;;;;21.50;54.20;;;;;;5061904;28;20335;-56
2021/10/11 11:04:50;;;;;;;;;;;21.50;54.20;;;;;;5075914;28;19924;-52
2021/10/11 11:07:23;;;;;;;;;;;21.50;54.10;;;;;;5074080;28;19971;-56
2021/10/11 11:09:50;;;;;;;;;;;21.50;54.10;;;;;;5075575;28;19974;-58
2021/10/11 11:12:27;;;;;;;;;;;21.50;54.10;;;;;;5057691;28;19974;-56
2021/10/11 11:14:54;;;;;;;;;;;21.50;54.10;;;;;;5076344;28;20281;-57
2021/10/11 11:17:27;;;;;;;;;;;21.60;54.10;;;;;;5070299;28;19976;-54
2021/10/11 11:19:54;;;;;;;;;;;21.50;54.10;;;;;;5073800;28;19956;-57
2021/10/11 11:22:31;;;;;;;;;;;21.50;54.00;;;;;;5074178;28;19987;-57
2021/10/11 11:25:03;;;;;;;;;;;21.50;54.00;;;;;;5074837;28;19955;-56
2021/10/11 11:27:34;;;;;;;;;;;21.50;53.90;;;;;;5076027;28;19925;-58
2021/10/11 11:30:05;;;;;;;;;;;21.50;54.00;;;;;;5064591;28;20292;-55
2021/10/11 11:32:32;;;;;;;;;;;21.50;53.90;;;;;;5068260;28;19929;-55
2021/10/11 11:35:00;;;;;;;;;;;21.50;53.90;;;;;;5066986;28;19991;-57
2021/10/11 11:37:26;;;;;;;;;;;21.50;53.90;;;;;;5058800;28;20012;-57
2021/10/11 11:40:03;;;;;;;;;;;21.50;53.90;;;;;;5059024;28;19964;-57
2021/10/11 11:42:30;;;;;;;;;;;21.50;53.90;;;;;;5064963;28;20285;-57
2021/10/11 11:44:57;;;;;;;;;;;21.50;53.90;;;;;;5089926;28;19971;-58
2021/10/11 11:47:27;;;;;;;;;;;21.50;53.90;;;;;;5092808;28;20403;-57
2021/10/11 11:49:54;;;;;;;;;;;21.50;53.90;;;;;;5073995;28;19925;-59
2021/10/11 11:52:29;;;;;;;;;;;21.50;53.90;;;;;;5075636;28;20019;-56
2021/10/11 11:54:57;;;;;;;;;;;21.60;53.90;;;;;;5090206;28;20016;-56
2021/10/11 11:57:24;;;;;;;;;;;21.50;53.80;;;;;;5058269;28;19925;-58
2021/10/11 11:59:51;;;;;;;;;;;21.60;53.90;;;;;;5072817;28;19966;-57
2021/10/11 12:02:19;;;;;;;;;;;21.60;53.80;;;;;;5072732;28;19931;-57
2021/10/11 12:04:47;;;;;;;;;;;21.60;53.80;;;;;;5075220;28;20003;-56
2021/10/11 12:07:14;;;;;;;;;;;21.60;53.80;;;;;;5073451;28;19925;-56
2021/10/11 12:09:43;;;;;;;;;;;21.60;53.80;;;;;;5070538;28;19925;-57
2021/10/11 12:12:10;;;;;;;;;;;21.60;53.80;;;;;;5058375;28;19968;-53
2021/10/11 12:14:37;;;;;;;;;;;21.60;53.70;;;;;;5060763;28;19925;-56
2021/10/11 12:17:05;;;;;;;;;;;21.60;53.70;;;;;;5089576;28;20457;-56
2021/10/11 12:19:33;;;;;;;;;;;21.60;53.70;;;;;;5074069;28;19998;-56
2021/10/11 12:22:00;;;;;;;;;;;21.60;53.70;;;;;;5057423;28;19933;-58
2021/10/11 12:24:31;;;;;;;;;;;21.60;53.70;;;;;;5072518;28;20426;-56
2021/10/11 12:27:00;;;;;;;;;;;21.60;53.70;;;;;;5073011;28;19963;-57
2021/10/11 12:29:29;;;;;;;;;;;21.60;53.60;;;;;;5085853;28;19924;-57
2021/10/11 12:32:01;;;;;;;;;;;21.60;53.50;;;;;;5069530;28;20020;-57
2021/10/11 12:34:35;;;;;;;;;;;21.70;53.60;;;;;;5064805;28;19954;-54
2021/10/11 12:37:03;;;;;;;;;;;21.70;53.60;;;;;;5074336;28;19947;-54
2021/10/11 12:39:37;;;;;;;;;;;21.70;53.60;;;;;;5068294;28;20319;-56
2021/10/11 12:42:19;;;;;;;;;;;21.70;53.60;;;;;;5058954;28;19925;-56
2021/10/11 12:44:49;;;;;;;;;;;21.70;53.60;;;;;;5061859;28;19924;-58
2021/10/11 12:47:26;;;;;;;;;;;21.70;53.70;;;;;;5072263;28;19967;-54
2021/10/11 12:49:54;;;;;;;;;;;21.70;53.60;;;;;;5059192;28;20016;-57
2021/10/11 12:52:31;;;;;;;;;;;21.70;53.60;;;;;;5073194;28;19979;-56
2021/10/11 12:55:10;;;;;;;;;;;21.70;53.70;;;;;;5069892;28;19923;-55
2021/10/11 12:57:38;;;;;;;;;;;21.70;53.60;;;;;;5068080;28;19978;-57
2021/10/11 13:00:07;;;;;;;;;;;21.70;54.20;;;;;;5067397;28;20360;-56
2021/10/11 13:02:34;;;;;;;;;;;21.70;53.70;;;;;;5068695;28;19968;-58
2021/10/11 13:05:01;;;;;;;;;;;21.70;53.60;;;;;;5068177;28;19925;-56
2021/10/11 13:07:31;;;;;;;;;;;21.70;53.70;;;;;;5067886;28;19928;-57
2021/10/11 13:09:58;;;;;;;;;;;21.70;53.70;;;;;;5069217;28;19967;-55
2021/10/11 13:12:25;;;;;;;;;;;21.70;53.70;;;;;;5069066;28;19947;-57
2021/10/11 13:14:52;;;;;;;;;;;21.60;53.60;;;;;;5067582;28;20389;-56
2021/10/11 13:17:19;;;;;;;;;;;21.70;53.70;;;;;;5067816;28;20007;-56
2021/10/11 13:19:46;;;;;;;;;;;21.60;53.60;;;;;;5068109;28;19978;-57
2021/10/11 13:22:13;;;;;;;;;;;21.70;53.70;;;;;;5068834;28;20431;-57
2021/10/11 13:24:41;;;;;;;;;;;21.70;53.60;;;;;;5068911;28;20011;-56
2021/10/11 13:27:08;;;;;;;;;;;21.70;53.60;;;;;;5068648;28;20020;-57
2021/10/11 14:29:48;;;;;;;;;;;21.70;53.50;;;;;;5073495;28;19986;-56
2021/10/11 14:32:43;;;;;;;;;;;21.70;53.60;;;;;;5058647;28;19931;-54
2021/10/11 16:04:06;;;;;;;;;;;21.50;54.30;;;;;;5025937;28;19929;-56
2021/10/11 16:06:34;;;;;;;;;;;21.50;54.30;;;;;;5012040;28;19948;-58
2021/10/11 16:09:02;;;;;;;;;;;21.50;54.40;;;;;;5012915;28;20024;-55
2021/10/11 16:11:29;;;;;;;;;;;21.50;54.40;;;;;;5027874;28;19929;-57
2021/10/11 16:13:56;;;;;;;;;;;21.50;54.40;;;;;;5014715;28;19925;-57
2021/10/11 16:16:23;;;;;;;;;;;21.50;54.40;;;;;;5013916;28;20376;-55
2021/10/11 16:18:50;;;;;;;;;;;21.50;54.40;;;;;;5014421;28;19932;-56
2021/10/11 16:21:17;;;;;;;;;;;21.50;54.50;;;;;;5018145;28;19925;-56
2021/10/11 16:23:44;;;;;;;;;;;21.40;54.40;;;;;;5020729;28;20412;-56
2021/10/11 16:26:12;;;;;;;;;;;21.40;54.50;;;;;;5011110;28;20463;-56
2021/10/11 16:28:39;;;;;;;;;;;21.40;54.50;;;;;;5011002;28;19926;-57
2021/10/11 16:31:07;;;;;;;;;;;21.40;54.50;;;;;;5012538;28;20360;-57
2021/10/11 16:33:34;;;;;;;;;;;21.40;54.50;;;;;;5010599;28;19971;-57
2021/10/11 16:36:02;;;;;;;;;;;21.40;54.60;;;;;;5011814;28;19926;-54
2021/10/11 16:38:29;;;;;;;;;;;21.40;54.50;;;;;;5011473;28;19937;-57
2021/10/11 16:40:57;;;;;;;;;;;21.40;54.60;;;;;;5069691;28;19932;-56
2021/10/11 16:43:24;;;;;;;;;;;21.40;54.60;;;;;;5070646;28;19932;-53
2021/10/11 16:45:51;;;;;;;;;;;21.40;54.60;;;;;;5070867;28;19924;-56
2021/10/11 16:48:18;;;;;;;;;;;21.40;54.70;;;;;;5072035;28;20015;-58
2021/10/11 16:50:45;;;;;;;;;;;21.40;54.70;;;;;;5070939;28;19960;-56